Time;durP1;ratioP1;P1;durP2;ratioP2;P2;SDS_P1;SDS_P2;PMS_P1;PMS_P2;Temp;Humidity;BMP_temperature;BMP_pressure;BME280_temperature;BME280_humidity;BME280_pressure;Samples;Min_cycle;Max_cycle;Signal;HPM_P1;HPM_P2
2023/06/15 00:00:14;;;;;;;7.03;3.05;;;23.50;51.10;;;;;;5051228;28;20488;-59
2023/06/15 00:02:41;;;;;;;8.45;2.92;;;23.50;51.10;;;;;;5051203;28;20032;-61
2023/06/15 00:05:08;;;;;;;6.80;3.05;;;23.50;51.30;;;;;;5046416;28;20025;-61
2023/06/15 00:07:34;;;;;;;7.32;3.00;;;23.50;51.20;;;;;;5032610;28;20021;-59
2023/06/15 00:10:00;;;;;;;6.30;3.05;;;23.50;51.30;;;;;;5017597;28;20392;-60
2023/06/15 00:12:26;;;;;;;6.95;2.92;;;23.50;51.30;;;;;;5035369;28;20025;-60
2023/06/15 00:14:51;;;;;;;6.32;3.10;;;23.50;51.40;;;;;;5035080;28;20102;-61
2023/06/15 00:17:17;;;;;;;5.28;2.90;;;23.50;51.30;;;;;;5034783;28;20095;-61
2023/06/15 00:19:44;;;;;;;6.93;3.28;;;23.50;51.30;;;;;;5034956;28;20029;-61
2023/06/15 00:22:14;;;;;;;6.97;2.83;;;23.50;51.50;;;;;;5034991;28;20104;-61
2023/06/15 00:24:44;;;;;;;5.30;2.85;;;23.50;51.50;;;;;;5050178;28;20481;-62
2023/06/15 00:27:10;;;;;;;6.25;2.92;;;23.50;51.40;;;;;;5034675;28;20021;-62
2023/06/15 00:29:37;;;;;;;11.73;3.20;;;23.60;51.70;;;;;;5034889;28;20026;-61
2023/06/15 00:32:06;;;;;;;5.80;2.72;;;23.60;51.60;;;;;;5034996;28;20029;-58
2023/06/15 00:34:32;;;;;;;10.10;3.13;;;23.60;51.90;;;;;;5033694;28;20033;-59
2023/06/15 00:36:58;;;;;;;7.65;2.95;;;23.50;51.90;;;;;;5033503;28;20546;-58
2023/06/15 00:39:24;;;;;;;4.63;2.85;;;23.60;51.70;;;;;;5033359;28;20029;-59
2023/06/15 00:41:50;;;;;;;5.30;2.88;;;23.60;51.90;;;;;;5033475;28;20120;-58
2023/06/15 00:44:16;;;;;;;7.60;2.70;;;23.60;51.80;;;;;;5034571;28;20029;-57
2023/06/15 00:46:41;;;;;;;4.78;2.50;;;23.60;51.80;;;;;;5033316;28;20130;-57
2023/06/15 00:49:08;;;;;;;7.72;2.70;;;23.60;51.70;;;;;;5033421;28;20045;-57
2023/06/15 00:51:38;;;;;;;9.20;3.03;;;23.60;51.80;;;;;;5034557;28;20511;-60
2023/06/15 00:54:05;;;;;;;7.20;3.30;;;23.60;51.50;;;;;;5034722;28;20033;-60
2023/06/15 00:56:31;;;;;;;4.60;2.55;;;23.60;51.70;;;;;;5034433;28;20029;-60
2023/06/15 00:58:57;;;;;;;6.03;3.03;;;23.60;51.70;;;;;;5049517;28;20029;-58
2023/06/15 01:01:25;;;;;;;5.53;2.92;;;23.50;51.70;;;;;;5033130;28;20029;-59
2023/06/15 01:03:51;;;;;;;4.45;2.72;;;23.60;51.80;;;;;;5033042;28;20028;-59
2023/06/15 01:06:19;;;;;;;6.10;2.85;;;23.60;52.20;;;;;;5034220;28;20021;-57
2023/06/15 01:08:52;;;;;;;7.03;2.67;;;23.50;52.10;;;;;;5033925;28;20025;-61
2023/06/15 01:11:18;;;;;;;4.93;2.63;;;23.50;51.70;;;;;;5049608;28;20103;-56
2023/06/15 01:13:45;;;;;;;6.63;2.85;;;23.50;51.70;;;;;;5034198;28;20025;-60
2023/06/15 01:16:37;;;;;;;4.35;2.50;;;23.50;51.70;;;;;;5033341;28;20036;-61
2023/06/15 01:19:09;;;;;;;7.70;2.78;;;23.60;52.50;;;;;;5032830;28;20045;-59
2023/06/15 01:21:37;;;;;;;6.40;2.60;;;23.50;51.90;;;;;;5034128;28;20594;-55
2023/06/15 01:24:18;;;;;;;4.50;3.03;;;23.50;51.80;;;;;;5055895;23;20048;-49
2023/06/15 01:26:49;;;;;;;10.77;2.65;;;23.50;52.00;;;;;;5052702;28;20021;-44
2023/06/15 01:29:19;;;;;;;4.50;2.70;;;23.50;52.00;;;;;;5036094;28;20029;-48
2023/06/15 01:31:46;;;;;;;4.38;2.53;;;23.50;52.00;;;;;;5036239;28;20055;-45
2023/06/15 01:34:12;;;;;;;4.75;2.67;;;23.50;52.20;;;;;;5069072;28;20031;-44
2023/06/15 01:36:40;;;;;;;5.05;3.08;;;23.50;52.10;;;;;;5052303;28;20451;-44
2023/06/15 01:39:07;;;;;;;5.47;2.80;;;23.60;52.80;;;;;;5053486;28;20033;-45
2023/06/15 01:41:34;;;;;;;5.85;3.00;;;23.50;52.40;;;;;;5053530;28;20033;-45
2023/06/15 01:44:03;;;;;;;5.65;2.53;;;23.50;52.40;;;;;;5052333;28;20033;-45
2023/06/15 01:46:30;;;;;;;7.82;2.80;;;23.60;52.30;;;;;;5053461;28;20028;-46
2023/06/15 01:48:56;;;;;;;4.35;2.78;;;23.60;52.30;;;;;;5051947;28;20041;-44
2023/06/15 01:51:23;;;;;;;4.78;2.80;;;23.60;52.30;;;;;;5052281;28;20111;-53
2023/06/15 01:53:50;;;;;;;9.18;3.10;;;23.50;52.30;;;;;;5052329;28;20068;-54
2023/06/15 01:56:17;;;;;;;7.95;2.80;;;23.60;52.50;;;;;;5053447;28;20094;-54
2023/06/15 01:58:42;;;;;;;3.22;2.28;;;23.50;52.30;;;;;;5047205;28;20029;-54
2023/06/15 02:01:09;;;;;;;5.90;2.95;;;23.60;52.40;;;;;;5051876;28;20043;-54
2023/06/15 02:03:35;;;;;;;4.10;2.60;;;23.60;52.30;;;;;;5051844;28;20025;-52
2023/06/15 02:06:07;;;;;;;7.28;2.60;;;23.60;52.30;;;;;;5052891;28;20029;-55
2023/06/15 02:08:36;;;;;;;5.32;2.33;;;23.60;52.40;;;;;;5035287;28;20545;-55
2023/06/15 02:11:02;;;;;;;8.00;2.70;;;23.60;52.40;;;;;;5052931;28;20031;-52
2023/06/15 02:13:28;;;;;;;5.03;2.67;;;23.60;52.50;;;;;;5051707;28;20033;-54
2023/06/15 02:15:55;;;;;;;4.50;2.47;;;23.60;52.60;;;;;;5051598;28;20408;-55
2023/06/15 02:18:21;;;;;;;6.53;2.47;;;23.50;52.50;;;;;;5051361;28;20124;-51
2023/06/15 02:20:48;;;;;;;5.40;2.50;;;23.50;52.50;;;;;;5051530;28;20535;-52
2023/06/15 02:23:14;;;;;;;3.30;2.20;;;23.50;52.50;;;;;;5051644;28;20052;-55
2023/06/15 02:25:40;;;;;;;6.30;2.58;;;23.50;52.50;;;;;;5051524;28;20494;-48
2023/06/15 02:28:06;;;;;;;5.65;2.60;;;23.60;52.60;;;;;;5052566;28;20033;-49
2023/06/15 02:30:32;;;;;;;6.65;2.40;;;23.60;52.30;;;;;;5052642;28;20028;-47
2023/06/15 02:33:00;;;;;;;5.75;2.60;;;23.60;52.30;;;;;;5051716;28;20447;-48
2023/06/15 02:35:27;;;;;;;4.03;2.50;;;23.50;52.50;;;;;;5051897;28;20033;-47
2023/06/15 02:37:53;;;;;;;4.05;2.33;;;23.50;52.30;;;;;;5051148;28;20029;-51
2023/06/15 02:40:19;;;;;;;4.50;2.58;;;23.60;52.50;;;;;;5051473;28;20063;-48
2023/06/15 02:42:45;;;;;;;5.88;2.40;;;23.50;52.40;;;;;;5052556;28;20028;-48
2023/06/15 02:45:11;;;;;;;4.10;2.47;;;23.50;52.40;;;;;;5050941;28;20021;-53
2023/06/15 02:47:39;;;;;;;8.73;2.50;;;23.60;52.50;;;;;;5050240;28;20064;-49
2023/06/15 02:50:06;;;;;;;7.50;2.42;;;23.50;52.50;;;;;;5052126;28;20119;-45
2023/06/15 02:52:37;;;;;;;5.55;2.55;;;23.50;52.60;;;;;;5051049;28;20037;-51
2023/06/15 02:55:06;;;;;;;;;;;23.50;52.60;;;;;;5051361;28;20043;-49
2023/06/15 02:57:32;;;;;;;6.65;2.65;;;23.50;52.70;;;;;;5050704;28;20394;-48
2023/06/15 03:00:27;;;;;;;4.43;2.45;;;23.50;52.70;;;;;;5042897;28;20072;-48
2023/06/15 03:03:00;;;;;;;6.25;2.40;;;23.50;52.80;;;;;;5050849;28;20037;-45
2023/06/15 03:05:32;;;;;;;9.82;2.83;;;23.50;52.80;;;;;;5050626;28;20033;-45
2023/06/15 03:07:59;;;;;;;6.30;2.70;;;23.50;52.70;;;;;;5050484;28;20037;-50
2023/06/15 03:10:30;;;;;;;4.88;2.50;;;23.50;52.80;;;;;;5050666;28;20048;-46
2023/06/15 03:12:56;;;;;;;6.50;2.55;;;23.50;52.90;;;;;;5034155;28;20029;-50
2023/06/15 03:15:22;;;;;;;5.47;2.65;;;23.50;52.90;;;;;;5050459;28;20404;-49
2023/06/15 03:17:49;;;;;;;4.00;2.45;;;23.50;52.80;;;;;;5050325;28;20033;-51
2023/06/15 03:20:18;;;;;;;4.90;2.58;;;23.50;53.00;;;;;;5050557;28;20032;-52
2023/06/15 03:22:44;;;;;;;7.00;2.33;;;23.50;52.90;;;;;;5050498;28;20048;-47
2023/06/15 03:25:11;;;;;;;6.07;2.50;;;23.50;52.80;;;;;;5050384;28;20567;-47
2023/06/15 03:27:40;;;;;;;5.63;2.53;;;23.50;53.00;;;;;;5033683;28;20475;-46
2023/06/15 03:30:10;;;;;;;5.70;2.70;;;23.50;53.10;;;;;;5050566;28;20048;-46
2023/06/15 03:32:37;;;;;;;5.80;2.35;;;23.40;52.90;;;;;;5050365;28;20033;-46
2023/06/15 03:35:04;;;;;;;7.35;2.90;;;23.50;53.00;;;;;;5050277;28;20535;-51
2023/06/15 03:37:31;;;;;;;6.47;2.20;;;23.50;53.00;;;;;;5050091;28;20415;-48
2023/06/15 03:39:58;;;;;;;4.53;2.42;;;23.50;52.80;;;;;;5050373;28;20530;-46
2023/06/15 03:42:24;;;;;;;5.10;2.58;;;23.50;52.80;;;;;;5050993;28;20078;-52
2023/06/15 03:44:50;;;;;;;4.65;2.50;;;23.50;52.80;;;;;;5050177;28;20055;-46
2023/06/15 03:47:17;;;;;;;6.95;2.50;;;23.50;53.00;;;;;;5049921;28;20029;-48
2023/06/15 03:49:43;;;;;;;6.32;2.60;;;23.50;53.10;;;;;;5051287;28;20072;-46
2023/06/15 03:52:09;;;;;;;4.43;2.20;;;23.50;53.00;;;;;;5051334;28;20075;-51
2023/06/15 03:54:36;;;;;;;4.55;2.35;;;23.50;52.90;;;;;;5050061;28;20082;-46
2023/06/15 03:57:05;;;;;;;5.30;2.33;;;23.50;52.90;;;;;;5049809;28;20082;-46
2023/06/15 03:59:31;;;;;;;3.30;2.30;;;23.50;52.90;;;;;;5050057;28;20029;-46
2023/06/15 04:01:57;;;;;;;7.22;2.30;;;23.50;53.00;;;;;;5050157;28;20056;-46
2023/06/15 04:04:23;;;;;;;8.98;2.83;;;23.50;53.20;;;;;;5049839;28;20048;-47
2023/06/15 04:06:52;;;;;;;4.05;2.20;;;23.50;53.00;;;;;;5050864;28;20033;-49
2023/06/15 04:09:19;;;;;;;8.63;2.85;;;23.50;53.00;;;;;;5033475;28;20043;-47
2023/06/15 04:11:44;;;;;;;4.15;2.42;;;23.50;52.90;;;;;;5049988;28;20028;-48
2023/06/15 04:14:12;;;;;;;4.20;2.33;;;23.50;53.10;;;;;;5033373;28;20036;-49
2023/06/15 04:16:38;;;;;;;7.97;2.38;;;23.50;53.00;;;;;;5049924;28;20425;-52
2023/06/15 04:19:04;;;;;;;5.80;2.30;;;23.50;53.00;;;;;;5050765;28;20124;-49
2023/06/15 04:21:30;;;;;;;5.97;2.58;;;23.50;53.10;;;;;;5050157;28;20123;-45
2023/06/15 04:23:56;;;;;;;3.15;2.10;;;23.50;53.00;;;;;;5050006;28;20021;-46
2023/06/15 04:26:22;;;;;;;5.15;2.20;;;23.50;53.10;;;;;;5050061;28;20459;-47
2023/06/15 04:28:49;;;;;;;4.28;2.15;;;23.50;53.10;;;;;;5049761;28;20112;-54
2023/06/15 04:31:21;;;;;;;5.00;2.40;;;23.50;53.20;;;;;;5049967;28;20448;-55
2023/06/15 04:33:49;;;;;;;3.60;2.25;;;23.50;53.20;;;;;;5049739;28;20056;-55
2023/06/15 04:36:16;;;;;;;2.90;2.10;;;23.50;53.20;;;;;;5049761;28;20028;-55
2023/06/15 04:38:46;;;;;;;5.07;2.45;;;23.50;53.10;;;;;;5049513;28;20496;-48
2023/06/15 04:41:16;;;;;;;5.95;2.30;;;23.50;53.30;;;;;;5049760;28;20028;-53
2023/06/15 04:43:43;;;;;;;6.72;2.55;;;23.50;53.20;;;;;;5050083;28;20025;-54
2023/06/15 04:46:14;;;;;;;3.45;2.38;;;23.50;53.30;;;;;;5049538;28;20029;-51
2023/06/15 04:48:43;;;;;;;10.60;2.50;;;23.50;53.40;;;;;;5049305;28;20035;-52
2023/06/15 04:51:11;;;;;;;5.47;2.55;;;23.50;53.30;;;;;;5050819;28;20033;-54
2023/06/15 04:53:39;;;;;;;4.40;2.38;;;23.50;53.30;;;;;;5049680;28;20037;-54
2023/06/15 04:56:04;;;;;;;6.53;2.47;;;23.50;53.30;;;;;;5054324;28;20099;-54
2023/06/15 04:58:30;;;;;;;5.15;2.10;;;23.50;53.40;;;;;;5052718;28;20120;-51
2023/06/15 05:00:57;;;;;;;5.70;2.30;;;23.50;53.30;;;;;;5036871;28;20377;-51
2023/06/15 05:03:24;;;;;;;4.55;2.40;;;23.50;53.40;;;;;;5054224;28;20364;-50
2023/06/15 05:05:50;;;;;;;5.53;2.40;;;23.50;53.30;;;;;;5053101;28;20036;-51
2023/06/15 05:08:16;;;;;;;5.93;2.55;;;23.50;53.40;;;;;;5036146;28;20029;-50
2023/06/15 05:10:43;;;;;;;3.80;2.15;;;23.50;53.30;;;;;;5052965;28;20032;-53
2023/06/15 05:13:08;;;;;;;5.25;2.50;;;23.50;53.30;;;;;;5052679;28;20025;-52
2023/06/15 05:15:35;;;;;;;3.95;2.35;;;23.50;53.40;;;;;;5052724;28;20543;-52
2023/06/15 05:18:01;;;;;;;4.35;2.20;;;23.50;53.40;;;;;;5052820;28;20411;-47
2023/06/15 05:20:27;;;;;;;2.95;2.00;;;23.50;53.30;;;;;;5053727;28;20108;-50
2023/06/15 05:22:53;;;;;;;5.97;2.42;;;23.50;53.30;;;;;;5052605;28;20029;-49
2023/06/15 05:25:20;;;;;;;2.95;2.35;;;23.50;53.30;;;;;;5053663;28;20108;-48
2023/06/15 05:27:47;;;;;;;4.65;2.03;;;23.50;53.40;;;;;;5052243;28;20444;-53
2023/06/15 05:30:13;;;;;;;6.15;2.72;;;23.50;53.30;;;;;;5052113;28;20036;-49
2023/06/15 05:32:39;;;;;;;7.45;2.33;;;23.50;53.30;;;;;;5053510;28;20601;-49
2023/06/15 05:35:09;;;;;;;4.65;2.40;;;23.50;53.30;;;;;;5052337;28;20078;-49
2023/06/15 05:37:36;;;;;;;3.25;2.22;;;23.50;53.30;;;;;;5053328;28;20033;-49
2023/06/15 05:40:04;;;;;;;5.80;2.53;;;23.50;53.40;;;;;;5052273;28;20029;-47
2023/06/15 05:42:32;;;;;;;4.32;2.50;;;23.50;53.30;;;;;;5053450;28;20461;-50
2023/06/15 05:44:57;;;;;;;5.93;2.63;;;23.50;53.30;;;;;;5052315;28;20112;-47
2023/06/15 05:47:24;;;;;;;7.47;2.50;;;23.50;53.30;;;;;;5051932;28;20419;-47
2023/06/15 05:49:51;;;;;;;6.10;2.17;;;23.50;53.20;;;;;;5052114;28;20039;-46
2023/06/15 05:52:17;;;;;;;3.05;2.15;;;23.50;53.40;;;;;;5035586;28;20060;-48
2023/06/15 05:54:45;;;;;;;3.97;2.42;;;23.50;53.30;;;;;;5051929;28;20075;-46
2023/06/15 05:57:13;;;;;;;3.97;2.22;;;23.50;53.30;;;;;;5051781;28;20029;-48
2023/06/15 05:59:39;;;;;;;3.30;2.50;;;23.50;53.50;;;;;;5051965;28;20044;-46
2023/06/15 06:02:07;;;;;;;8.02;2.42;;;23.50;53.20;;;;;;5051682;28;20032;-46
2023/06/15 06:04:36;;;;;;;5.60;2.50;;;23.50;53.70;;;;;;5051296;28;20029;-48
2023/06/15 06:07:05;;;;;;;5.93;2.33;;;23.50;53.50;;;;;;5052878;28;20116;-46
2023/06/15 06:09:35;;;;;;;7.82;2.70;;;23.60;53.70;;;;;;5051785;28;20033;-53
2023/06/15 06:12:01;;;;;;;7.60;2.47;;;23.50;53.80;;;;;;5052171;28;20040;-48
2023/06/15 06:14:28;;;;;;;10.60;2.60;;;23.50;53.80;;;;;;5051694;28;20025;-47
2023/06/15 06:16:55;;;;;;;13.05;2.50;;;23.50;54.10;;;;;;5052276;28;20094;-46
2023/06/15 06:19:24;;;;;;;5.22;2.35;;;23.50;54.50;;;;;;5051452;28;20028;-49
2023/06/15 06:21:50;;;;;;;16.20;3.13;;;23.50;54.60;;;;;;5051692;28;20017;-45
2023/06/15 06:24:17;;;;;;;9.48;2.38;;;23.50;54.70;;;;;;5051392;28;20036;-46
2023/06/15 06:26:46;;;;;;;29.50;4.00;;;23.40;54.50;;;;;;5051269;28;20056;-50
2023/06/15 06:29:12;;;;;;;17.83;4.03;;;23.40;53.80;;;;;;5052851;28;20483;-44
2023/06/15 06:31:37;;;;;;;9.75;3.15;;;23.40;54.00;;;;;;5052678;28;20487;-47
2023/06/15 20:55:52;;;;;;;17.40;4.65;;;23.10;53.80;;;;;;5097239;27;20419;-59
2023/06/15 20:58:18;;;;;;;8.50;3.80;;;23.20;54.80;;;;;;5088744;28;20078;-58
2023/06/15 21:00:44;;;;;;;9.82;4.10;;;23.20;54.60;;;;;;5088724;28;20016;-59
2023/06/15 21:03:10;;;;;;;12.23;3.88;;;23.20;54.50;;;;;;5088715;28;20078;-59
2023/06/15 21:05:36;;;;;;;11.82;4.28;;;23.20;54.50;;;;;;5088378;28;20103;-60
2023/06/15 21:08:02;;;;;;;16.58;3.78;;;23.20;54.40;;;;;;5088299;28;20017;-49
2023/06/15 21:10:28;;;;;;;16.45;4.30;;;23.20;54.80;;;;;;5088030;28;20380;-52
2023/06/15 21:12:54;;;;;;;6.97;3.78;;;23.30;54.80;;;;;;5088073;28;20108;-51
2023/06/15 21:15:20;;;;;;;9.35;3.88;;;23.20;54.60;;;;;;5087677;28;20029;-50
2023/06/15 21:17:46;;;;;;;11.15;3.60;;;23.30;54.70;;;;;;5088085;28;20073;-57
2023/06/15 21:20:13;;;;;;;12.07;3.72;;;23.30;54.60;;;;;;5088000;28;20107;-51
2023/06/15 21:22:40;;;;;;;7.90;3.88;;;23.30;54.60;;;;;;5088062;28;20039;-54
2023/06/15 21:25:06;;;;;;;7.75;3.45;;;23.30;54.30;;;;;;5087913;28;20028;-51
2023/06/15 21:27:32;;;;;;;16.05;4.05;;;23.30;54.30;;;;;;5088220;28;20028;-50
2023/06/15 21:29:58;;;;;;;9.32;3.97;;;23.30;54.50;;;;;;5087999;28;20032;-52
2023/06/15 21:32:24;;;;;;;11.63;4.13;;;23.40;55.20;;;;;;5088181;28;20107;-54
2023/06/15 21:34:52;;;;;;;7.55;3.50;;;23.30;55.10;;;;;;5080463;28;20380;-55
2023/06/15 21:37:18;;;;;;;8.70;4.10;;;23.40;55.80;;;;;;5083404;28;20025;-54
2023/06/15 21:39:48;;;;;;;10.48;3.83;;;23.30;55.40;;;;;;5083743;28;20399;-48
2023/06/15 21:42:15;;;;;;;8.38;3.67;;;23.30;55.50;;;;;;5083563;28;20050;-51
2023/06/15 21:44:48;;;;;;;8.75;3.50;;;23.40;55.90;;;;;;5083722;28;20035;-54
2023/06/15 21:47:17;;;;;;;6.40;3.50;;;23.40;56.20;;;;;;5084796;28;20024;-53
2023/06/15 21:49:44;;;;;;;9.70;3.83;;;23.40;56.30;;;;;;5084717;28;20031;-55
2023/06/15 21:52:13;;;;;;;12.15;3.22;;;23.30;56.30;;;;;;5066049;28;20029;-57
2023/06/15 21:54:38;;;;;;;12.02;3.83;;;23.40;56.90;;;;;;5082350;28;20040;-54
2023/06/15 21:57:05;;;;;;;7.47;3.53;;;23.40;57.00;;;;;;5069210;28;20107;-51
2023/06/15 21:59:31;;;;;;;7.65;3.83;;;23.40;56.60;;;;;;5064224;28;20074;-49
2023/06/15 22:01:57;;;;;;;8.43;3.90;;;23.40;56.40;;;;;;5068481;28;20032;-55
2023/06/15 22:04:24;;;;;;;8.23;3.38;;;23.40;56.50;;;;;;5069233;28;20025;-53
2023/06/15 22:06:50;;;;;;;7.68;3.45;;;23.40;56.60;;;;;;5070763;28;20029;-52
2023/06/15 22:09:16;;;;;;;8.68;3.67;;;23.40;56.60;;;;;;5070817;28;20031;-55
2023/06/15 22:11:42;;;;;;;7.57;3.65;;;23.40;56.50;;;;;;5069827;28;20461;-50
2023/06/15 22:14:09;;;;;;;4.63;3.25;;;23.40;56.50;;;;;;5070191;28;20028;-53
2023/06/15 22:16:37;;;;;;;7.78;3.65;;;23.40;56.50;;;;;;5069519;28;20104;-52
2023/06/15 22:19:03;;;;;;;7.22;3.55;;;23.40;56.30;;;;;;5070209;28;20037;-50
2023/06/15 22:21:30;;;;;;;7.15;3.20;;;23.40;56.40;;;;;;5070721;28;20449;-50
2023/06/15 22:23:56;;;;;;;9.15;3.60;;;23.40;56.30;;;;;;5067837;28;20386;-50
2023/06/15 22:26:22;;;;;;;7.10;3.70;;;23.40;56.50;;;;;;5068854;28;20036;-48
2023/06/15 22:28:48;;;;;;;5.28;3.08;;;23.40;56.30;;;;;;5070724;28;20020;-51
2023/06/15 22:31:14;;;;;;;8.38;3.50;;;23.40;56.40;;;;;;5069717;28;20616;-50
2023/06/15 22:33:40;;;;;;;16.08;3.80;;;23.40;56.30;;;;;;5070348;28;20452;-54
2023/06/15 22:36:08;;;;;;;6.50;3.10;;;23.40;56.50;;;;;;5070062;28;20064;-53
2023/06/15 22:38:37;;;;;;;11.93;3.47;;;23.40;56.30;;;;;;5069743;28;20029;-51
2023/06/15 22:41:06;;;;;;;7.78;3.47;;;23.40;56.40;;;;;;5070050;28;20035;-54
2023/06/15 22:43:33;;;;;;;7.72;3.83;;;23.40;56.40;;;;;;5069094;28;20574;-53
2023/06/15 22:46:01;;;;;;;11.63;3.70;;;23.40;56.50;;;;;;5069339;28;20133;-56
2023/06/15 22:48:31;;;;;;;5.35;3.33;;;23.40;56.30;;;;;;5069777;28;20029;-56
2023/06/15 22:50:56;;;;;;;9.75;3.70;;;23.40;56.40;;;;;;5068246;28;20426;-52
2023/06/15 22:53:23;;;;;;;7.82;3.30;;;23.40;56.30;;;;;;5069644;28;20025;-49
2023/06/15 22:55:51;;;;;;;9.20;3.83;;;23.40;56.50;;;;;;5069019;28;20036;-52
2023/06/15 22:58:17;;;;;;;20.10;3.30;;;23.40;56.40;;;;;;5068638;28;20720;-54
2023/06/15 23:00:43;;;;;;;8.80;3.40;;;23.40;56.50;;;;;;5069965;28;20501;-54
2023/06/15 23:03:09;;;;;;;8.55;3.50;;;23.40;56.40;;;;;;5068585;28;20036;-50
2023/06/15 23:05:36;;;;;;;7.95;4.10;;;23.40;56.30;;;;;;5068984;28;20484;-51
2023/06/15 23:08:09;;;;;;;8.45;3.63;;;23.40;56.40;;;;;;5068712;28;20422;-52
2023/06/15 23:10:40;;;;;;;7.68;3.80;;;23.40;56.30;;;;;;5068832;28;20032;-55
2023/06/15 23:13:08;;;;;;;7.53;3.03;;;23.40;56.30;;;;;;5069793;28;20021;-52
2023/06/15 23:15:34;;;;;;;9.27;3.30;;;23.40;56.30;;;;;;5069420;28;20457;-52
2023/06/15 23:18:01;;;;;;;8.32;3.50;;;23.40;56.30;;;;;;5068678;28;20024;-52
2023/06/15 23:20:28;;;;;;;7.75;3.30;;;23.40;56.30;;;;;;5069114;28;20020;-54
2023/06/15 23:22:58;;;;;;;10.15;3.80;;;23.40;56.30;;;;;;5068687;28;20032;-51
2023/06/15 23:25:23;;;;;;;7.55;3.25;;;23.40;56.30;;;;;;5070295;28;20031;-56
2023/06/15 23:27:53;;;;;;;7.20;3.40;;;23.30;56.20;;;;;;5072447;28;20108;-51
2023/06/15 23:30:21;;;;;;;11.05;3.50;;;23.40;56.30;;;;;;5072714;28;20447;-50
2023/06/15 23:32:48;;;;;;;10.88;3.40;;;23.30;56.20;;;;;;5072419;28;20062;-51
2023/06/15 23:35:15;;;;;;;7.72;3.28;;;23.30;56.20;;;;;;5072095;28;20448;-55
2023/06/15 23:37:41;;;;;;;8.00;3.17;;;23.30;56.20;;;;;;5072735;28;20047;-51
2023/06/15 23:40:07;;;;;;;11.95;3.80;;;23.40;56.20;;;;;;5054590;28;20487;-52
2023/06/15 23:42:33;;;;;;;12.77;3.65;;;23.30;56.10;;;;;;5072240;28;20033;-53
2023/06/15 23:45:00;;;;;;;5.50;2.97;;;23.30;56.20;;;;;;5071659;28;20377;-53
2023/06/15 23:47:26;;;;;;;6.40;3.33;;;23.40;56.20;;;;;;5072216;28;20032;-55
2023/06/15 23:49:52;;;;;;;9.85;3.40;;;23.40;56.10;;;;;;5072133;28;20025;-51
2023/06/15 23:52:18;;;;;;;8.07;3.42;;;23.40;56.00;;;;;;5071998;28;20031;-49
2023/06/15 23:54:44;;;;;;;12.40;3.42;;;23.40;56.60;;;;;;5071425;28;20052;-51
2023/06/15 23:57:10;;;;;;;5.15;3.13;;;23.40;56.00;;;;;;5072038;28;20028;-55
2023/06/15 23:59:35;;;;;;;5.00;2.88;;;23.30;55.90;;;;;;5071753;28;20147;-54
